sensor_id;sensor_type;location;lat;lon;timestamp;pressure;altitude;pressure_sealevel;temperature;humidity
62124;BME280;48110;47.532;19.078;2022-08-19T00:02:25;99825.41;;;24.97;56.49
62124;BME280;48110;47.532;19.078;2022-08-19T00:05:29;99819.16;;;24.91;56.59
62124;BME280;48110;47.532;19.078;2022-08-19T00:08:32;99821.88;;;24.91;56.51
62124;BME280;48110;47.532;19.078;2022-08-19T00:11:36;99824.28;;;25.03;56.91
62124;BME280;48110;47.532;19.078;2022-08-19T00:14:39;99826.19;;;25.02;56.48
62124;BME280;48110;47.532;19.078;2022-08-19T00:17:43;99821.22;;;25.25;55.88
62124;BME280;48110;47.532;19.078;2022-08-19T00:20:46;99825.53;;;25.36;55.39
62124;BME280;48110;47.532;19.078;2022-08-19T00:23:49;99817.69;;;25.29;55.79
62124;BME280;48110;47.532;19.078;2022-08-19T00:26:52;99827.19;;;25.32;55.43
62124;BME280;48110;47.532;19.078;2022-08-19T00:29:57;99823.09;;;25.29;55.79
62124;BME280;48110;47.532;19.078;2022-08-19T00:33:01;99824.19;;;25.28;56.21
62124;BME280;48110;47.532;19.078;2022-08-19T00:36:06;99822.28;;;25.29;55.97
62124;BME280;48110;47.532;19.078;2022-08-19T00:39:09;99831.53;;;25.28;56.16
62124;BME280;48110;47.532;19.078;2022-08-19T00:42:12;99823.16;;;25.19;57.50
62124;BME280;48110;47.532;19.078;2022-08-19T00:45:20;99828.91;;;25.02;56.96
62124;BME280;48110;47.532;19.078;2022-08-19T00:48:23;99820.78;;;24.92;58.32
62124;BME280;48110;47.532;19.078;2022-08-19T00:51:27;99833.81;;;24.80;58.66
62124;BME280;48110;47.532;19.078;2022-08-19T00:54:32;99824.31;;;24.78;58.08
62124;BME280;48110;47.532;19.078;2022-08-19T00:57:38;99809.66;;;24.79;57.92
62124;BME280;48110;47.532;19.078;2022-08-19T01:00:42;99803.97;;;24.90;57.43
62124;BME280;48110;47.532;19.078;2022-08-19T01:03:45;99812.09;;;24.90;57.66
62124;BME280;48110;47.532;19.078;2022-08-19T01:07:01;99811.56;;;24.83;57.84
62124;BME280;48110;47.532;19.078;2022-08-19T01:10:13;99806.94;;;24.79;57.68
62124;BME280;48110;47.532;19.078;2022-08-19T01:13:24;99803.44;;;24.83;57.71
62124;BME280;48110;47.532;19.078;2022-08-19T01:16:28;99809.94;;;24.77;57.87
62124;BME280;48110;47.532;19.078;2022-08-19T01:19:38;99823.53;;;24.67;58.56
62124;BME280;48110;47.532;19.078;2022-08-19T01:22:55;99820.00;;;24.51;59.85
62124;BME280;48110;47.532;19.078;2022-08-19T01:25:59;99812.13;;;24.50;61.66
62124;BME280;48110;47.532;19.078;2022-08-19T01:29:01;99807.00;;;24.58;61.63
62124;BME280;48110;47.532;19.078;2022-08-19T01:32:10;99801.81;;;24.67;61.11
62124;BME280;48110;47.532;19.078;2022-08-19T01:35:36;99808.56;;;24.75;61.29
62124;BME280;48110;47.532;19.078;2022-08-19T01:38:41;99814.81;;;24.70;61.10
62124;BME280;48110;47.532;19.078;2022-08-19T01:41:47;99807.81;;;24.54;62.11
62124;BME280;48110;47.532;19.078;2022-08-19T01:44:50;99796.97;;;24.54;61.98
62124;BME280;48110;47.532;19.078;2022-08-19T01:47:53;99799.41;;;24.45;62.26
62124;BME280;48110;47.532;19.078;2022-08-19T01:51:05;99787.22;;;24.33;63.54
62124;BME280;48110;47.532;19.078;2022-08-19T01:54:10;99787.47;;;24.26;62.67
62124;BME280;48110;47.532;19.078;2022-08-19T01:57:14;99789.38;;;24.31;62.71
62124;BME280;48110;47.532;19.078;2022-08-19T02:00:19;99783.16;;;24.20;63.02
62124;BME280;48110;47.532;19.078;2022-08-19T02:03:22;99772.59;;;24.18;62.92
62124;BME280;48110;47.532;19.078;2022-08-19T02:06:25;99778.28;;;24.17;63.05
62124;BME280;48110;47.532;19.078;2022-08-19T02:09:30;99776.91;;;24.09;63.52
62124;BME280;48110;47.532;19.078;2022-08-19T02:12:33;99777.97;;;24.13;63.46
62124;BME280;48110;47.532;19.078;2022-08-19T02:15:39;99766.88;;;24.15;63.47
62124;BME280;48110;47.532;19.078;2022-08-19T02:18:41;99771.22;;;24.06;63.64
62124;BME280;48110;47.532;19.078;2022-08-19T02:21:44;99762.53;;;23.94;64.21
62124;BME280;48110;47.532;19.078;2022-08-19T02:24:47;99769.84;;;23.93;64.38
62124;BME280;48110;47.532;19.078;2022-08-19T02:27:50;99778.22;;;23.92;64.62
62124;BME280;48110;47.532;19.078;2022-08-19T02:30:53;99764.97;;;23.85;64.72
62124;BME280;48110;47.532;19.078;2022-08-19T02:33:56;99758.97;;;23.78;64.64
62124;BME280;48110;47.532;19.078;2022-08-19T02:36:59;99758.47;;;23.81;64.59
62124;BME280;48110;47.532;19.078;2022-08-19T02:40:05;99763.06;;;23.86;64.90
62124;BME280;48110;47.532;19.078;2022-08-19T02:43:14;99772.81;;;23.76;65.49
62124;BME280;48110;47.532;19.078;2022-08-19T02:46:20;99771.44;;;23.69;66.49
62124;BME280;48110;47.532;19.078;2022-08-19T02:49:23;99775.50;;;23.61;66.04
62124;BME280;48110;47.532;19.078;2022-08-19T02:52:29;99773.56;;;23.52;66.75
62124;BME280;48110;47.532;19.078;2022-08-19T02:55:31;99777.34;;;23.46;67.56
62124;BME280;48110;47.532;19.078;2022-08-19T02:58:48;99785.69;;;23.44;68.59
62124;BME280;48110;47.532;19.078;2022-08-19T03:01:51;99796.03;;;23.47;69.08
62124;BME280;48110;47.532;19.078;2022-08-19T03:04:54;99801.91;;;23.39;68.88
62124;BME280;48110;47.532;19.078;2022-08-19T03:07:57;99809.78;;;23.40;69.15
62124;BME280;48110;47.532;19.078;2022-08-19T03:11:00;99803.00;;;23.33;69.38
62124;BME280;48110;47.532;19.078;2022-08-19T03:14:04;99800.28;;;23.28;69.84
62124;BME280;48110;47.532;19.078;2022-08-19T03:17:07;99803.25;;;23.31;69.34
62124;BME280;48110;47.532;19.078;2022-08-19T03:20:10;99820.03;;;23.33;68.96
62124;BME280;48110;47.532;19.078;2022-08-19T03:23:13;99819.22;;;23.28;68.96
62124;BME280;48110;47.532;19.078;2022-08-19T03:26:17;99819.19;;;23.23;68.54
62124;BME280;48110;47.532;19.078;2022-08-19T03:29:20;99816.75;;;23.21;68.48
62124;BME280;48110;47.532;19.078;2022-08-19T03:32:32;99825.63;;;23.12;68.57
62124;BME280;48110;47.532;19.078;2022-08-19T03:35:35;99828.03;;;23.03;69.09
62124;BME280;48110;47.532;19.078;2022-08-19T03:38:47;99823.13;;;23.00;69.50
62124;BME280;48110;47.532;19.078;2022-08-19T03:41:57;99824.81;;;23.11;68.32
62124;BME280;48110;47.532;19.078;2022-08-19T03:45:24;99828.88;;;23.09;68.41
62124;BME280;48110;47.532;19.078;2022-08-19T03:48:31;99832.91;;;23.06;68.33
62124;BME280;48110;47.532;19.078;2022-08-19T03:51:37;99835.06;;;23.04;67.97
62124;BME280;48110;47.532;19.078;2022-08-19T03:54:40;99831.31;;;23.15;67.23
62124;BME280;48110;47.532;19.078;2022-08-19T03:57:42;99832.13;;;23.16;67.22
62124;BME280;48110;47.532;19.078;2022-08-19T04:00:45;99829.44;;;23.16;67.29
62124;BME280;48110;47.532;19.078;2022-08-19T04:03:48;99840.25;;;23.16;67.16
62124;BME280;48110;47.532;19.078;2022-08-19T04:06:52;99841.03;;;23.11;67.27
62124;BME280;48110;47.532;19.078;2022-08-19T04:09:55;99837.28;;;23.12;67.06
62124;BME280;48110;47.532;19.078;2022-08-19T04:12:58;99843.50;;;23.13;67.21
62124;BME280;48110;47.532;19.078;2022-08-19T04:16:01;99852.75;;;23.27;66.60
62124;BME280;48110;47.532;19.078;2022-08-19T04:19:05;99857.59;;;23.20;67.20
62124;BME280;48110;47.532;19.078;2022-08-19T04:22:09;99861.41;;;23.24;67.16
62124;BME280;48110;47.532;19.078;2022-08-19T04:25:13;99871.97;;;23.25;67.08
62124;BME280;48110;47.532;19.078;2022-08-19T04:28:16;99867.12;;;23.27;67.10
62124;BME280;48110;47.532;19.078;2022-08-19T04:31:23;99866.03;;;23.28;67.17
62124;BME280;48110;47.532;19.078;2022-08-19T04:34:29;99866.03;;;23.33;67.65
62124;BME280;48110;47.532;19.078;2022-08-19T04:37:32;99855.50;;;23.32;68.02
62124;BME280;48110;47.532;19.078;2022-08-19T04:40:41;99859.31;;;23.36;68.42
62124;BME280;48110;47.532;19.078;2022-08-19T04:44:03;99872.84;;;23.36;69.29
62124;BME280;48110;47.532;19.078;2022-08-19T04:47:06;99862.53;;;23.33;68.92
62124;BME280;48110;47.532;19.078;2022-08-19T04:50:13;99874.72;;;23.35;70.08
62124;BME280;48110;47.532;19.078;2022-08-19T04:53:20;99885.09;;;23.49;71.22
62124;BME280;48110;47.532;19.078;2022-08-19T04:56:22;99874.00;;;23.45;70.02
62124;BME280;48110;47.532;19.078;2022-08-19T04:59:28;99871.50;;;23.44;68.58
62124;BME280;48110;47.532;19.078;2022-08-19T05:02:31;99870.22;;;23.46;70.13
62124;BME280;48110;47.532;19.078;2022-08-19T05:05:41;99866.44;;;23.47;68.47
62124;BME280;48110;47.532;19.078;2022-08-19T05:08:47;99871.09;;;23.62;67.52
62124;BME280;48110;47.532;19.078;2022-08-19T05:11:53;99876.25;;;23.68;66.91
62124;BME280;48110;47.532;19.078;2022-08-19T05:14:57;99877.34;;;23.72;66.76
62124;BME280;48110;47.532;19.078;2022-08-19T05:18:00;99866.00;;;23.80;66.65
62124;BME280;48110;47.532;19.078;2022-08-19T05:21:22;99866.03;;;23.91;65.93
62124;BME280;48110;47.532;19.078;2022-08-19T05:24:44;99869.28;;;24.03;65.41
62124;BME280;48110;47.532;19.078;2022-08-19T05:28:06;99876.09;;;24.05;65.10
62124;BME280;48110;47.532;19.078;2022-08-19T05:31:09;99880.47;;;24.21;64.06
62124;BME280;48110;47.532;19.078;2022-08-19T05:34:12;99872.06;;;24.33;63.54
62124;BME280;48110;47.532;19.078;2022-08-19T05:37:22;99868.56;;;24.48;62.85
62124;BME280;48110;47.532;19.078;2022-08-19T05:40:24;99866.66;;;24.53;62.64
62124;BME280;48110;47.532;19.078;2022-08-19T05:43:28;99876.97;;;24.61;62.57
62124;BME280;48110;47.532;19.078;2022-08-19T05:46:31;99874.50;;;24.80;62.26
62124;BME280;48110;47.532;19.078;2022-08-19T05:49:35;99878.03;;;25.01;61.66
62124;BME280;48110;47.532;19.078;2022-08-19T05:52:39;99869.91;;;25.01;61.57
62124;BME280;48110;47.532;19.078;2022-08-19T05:55:47;99879.37;;;25.03;60.77
62124;BME280;48110;47.532;19.078;2022-08-19T05:58:50;99880.72;;;25.11;61.24
62124;BME280;48110;47.532;19.078;2022-08-19T06:01:53;99881.50;;;25.27;61.26
62124;BME280;48110;47.532;19.078;2022-08-19T06:04:58;99882.34;;;25.17;60.27
62124;BME280;48110;47.532;19.078;2022-08-19T06:08:00;99874.69;;;25.34;59.69
62124;BME280;48110;47.532;19.078;2022-08-19T06:11:25;99877.34;;;25.55;58.36
62124;BME280;48110;47.532;19.078;2022-08-19T06:14:35;99880.84;;;25.65;58.74
62124;BME280;48110;47.532;19.078;2022-08-19T06:17:43;99883.75;;;25.79;58.35
62124;BME280;48110;47.532;19.078;2022-08-19T06:20:49;99873.72;;;25.74;58.99
62124;BME280;48110;47.532;19.078;2022-08-19T06:23:58;99876.63;;;25.93;58.14
62124;BME280;48110;47.532;19.078;2022-08-19T06:27:01;99875.34;;;26.24;57.19
62124;BME280;48110;47.532;19.078;2022-08-19T06:30:04;99883.47;;;26.29;56.97
62124;BME280;48110;47.532;19.078;2022-08-19T06:33:07;99877.31;;;26.53;55.69
62124;BME280;48110;47.532;19.078;2022-08-19T06:36:25;99873.25;;;26.79;55.10
62124;BME280;48110;47.532;19.078;2022-08-19T06:39:36;99859.41;;;26.47;54.92
62124;BME280;48110;47.532;19.078;2022-08-19T06:42:40;99856.66;;;26.52;54.23
62124;BME280;48110;47.532;19.078;2022-08-19T06:45:56;99867.16;;;26.92;53.31
62124;BME280;48110;47.532;19.078;2022-08-19T06:49:00;99870.72;;;27.16;52.58
62124;BME280;48110;47.532;19.078;2022-08-19T06:52:05;99861.81;;;27.58;51.60
62124;BME280;48110;47.532;19.078;2022-08-19T06:55:08;99875.03;;;27.89;50.57
62124;BME280;48110;47.532;19.078;2022-08-19T06:58:11;99868.41;;;27.76;50.71
62124;BME280;48110;47.532;19.078;2022-08-19T07:01:14;99869.00;;;28.29;49.52
62124;BME280;48110;47.532;19.078;2022-08-19T07:04:20;99865.94;;;28.49;49.39
62124;BME280;48110;47.532;19.078;2022-08-19T07:07:23;99872.16;;;28.87;47.75
62124;BME280;48110;47.532;19.078;2022-08-19T07:10:26;99875.16;;;29.46;46.63
62124;BME280;48110;47.532;19.078;2022-08-19T07:13:29;99882.09;;;29.93;45.04
62124;BME280;48110;47.532;19.078;2022-08-19T07:16:31;99876.97;;;30.36;44.37
62124;BME280;48110;47.532;19.078;2022-08-19T07:19:34;99883.88;;;30.11;44.60
62124;BME280;48110;47.532;19.078;2022-08-19T07:22:38;99896.72;;;30.46;44.93
62124;BME280;48110;47.532;19.078;2022-08-19T07:25:42;99903.28;;;29.60;46.41
62124;BME280;48110;47.532;19.078;2022-08-19T07:28:45;99899.94;;;29.76;46.56
62124;BME280;48110;47.532;19.078;2022-08-19T07:31:55;99891.56;;;30.09;45.43
62124;BME280;48110;47.532;19.078;2022-08-19T07:35:01;99887.16;;;30.21;46.58
62124;BME280;48110;47.532;19.078;2022-08-19T07:38:06;99890.28;;;31.18;43.11
62124;BME280;48110;47.532;19.078;2022-08-19T07:41:13;99890.06;;;32.27;41.33
62124;BME280;48110;47.532;19.078;2022-08-19T07:44:18;99888.25;;;32.40;40.51
62124;BME280;48110;47.532;19.078;2022-08-19T07:47:22;99888.72;;;33.32;38.46
62124;BME280;48110;47.532;19.078;2022-08-19T07:50:45;99885.47;;;33.38;36.63
62124;BME280;48110;47.532;19.078;2022-08-19T07:53:48;99877.84;;;33.73;35.09
62124;BME280;48110;47.532;19.078;2022-08-19T07:56:53;99873.56;;;34.05;34.60
62124;BME280;48110;47.532;19.078;2022-08-19T07:59:56;99878.66;;;33.74;33.95
62124;BME280;48110;47.532;19.078;2022-08-19T08:02:59;99876.69;;;35.02;32.73
62124;BME280;48110;47.532;19.078;2022-08-19T08:06:02;99881.47;;;36.27;30.80
62124;BME280;48110;47.532;19.078;2022-08-19T08:09:33;99878.47;;;36.59;30.06
62124;BME280;48110;47.532;19.078;2022-08-19T08:12:40;99875.75;;;36.47;29.72
62124;BME280;48110;47.532;19.078;2022-08-19T08:15:43;99882.75;;;37.32;28.70
62124;BME280;48110;47.532;19.078;2022-08-19T08:18:47;99887.13;;;37.83;28.57
62124;BME280;48110;47.532;19.078;2022-08-19T08:21:56;99876.47;;;38.01;27.49
62124;BME280;48110;47.532;19.078;2022-08-19T08:25:05;99876.75;;;37.61;28.06
62124;BME280;48110;47.532;19.078;2022-08-19T08:28:10;99879.53;;;37.14;29.43
62124;BME280;48110;47.532;19.078;2022-08-19T08:31:19;99884.88;;;37.54;27.62
62124;BME280;48110;47.532;19.078;2022-08-19T08:34:22;99886.78;;;37.85;27.18
62124;BME280;48110;47.532;19.078;2022-08-19T08:37:25;99874.78;;;37.46;27.48
62124;BME280;48110;47.532;19.078;2022-08-19T08:40:51;99877.81;;;37.41;27.58
62124;BME280;48110;47.532;19.078;2022-08-19T08:43:55;99873.50;;;37.75;26.38
62124;BME280;48110;47.532;19.078;2022-08-19T08:47:03;99871.16;;;38.50;25.93
62124;BME280;48110;47.532;19.078;2022-08-19T08:50:16;99877.41;;;38.66;25.82
62124;BME280;48110;47.532;19.078;2022-08-19T08:53:22;99868.97;;;39.77;24.08
62124;BME280;48110;47.532;19.078;2022-08-19T08:56:31;99866.81;;;39.67;24.85
62124;BME280;48110;47.532;19.078;2022-08-19T08:59:37;99841.25;;;39.54;24.61
62124;BME280;48110;47.532;19.078;2022-08-19T09:02:40;99839.22;;;39.77;23.90
62124;BME280;48110;47.532;19.078;2022-08-19T09:09:48;99850.09;;;38.68;25.86
62124;BME280;48110;47.532;19.078;2022-08-19T09:16:20;99849.03;;;39.71;24.28
62124;BME280;48110;47.532;19.078;2022-08-19T09:19:30;99845.69;;;39.09;23.95
62124;BME280;48110;47.532;19.078;2022-08-19T09:22:38;99841.31;;;39.08;24.30
62124;BME280;48110;47.532;19.078;2022-08-19T09:25:41;99845.53;;;39.74;23.58
62124;BME280;48110;47.532;19.078;2022-08-19T09:28:46;99837.72;;;40.87;22.86
62124;BME280;48110;47.532;19.078;2022-08-19T09:31:50;99840.00;;;41.22;22.31
62124;BME280;48110;47.532;19.078;2022-08-19T09:34:53;99832.72;;;41.03;22.16
62124;BME280;48110;47.532;19.078;2022-08-19T09:38:01;99831.06;;;41.50;21.32
62124;BME280;48110;47.532;19.078;2022-08-19T09:41:07;99823.38;;;41.94;21.78
62124;BME280;48110;47.532;19.078;2022-08-19T09:44:12;99824.59;;;42.04;21.05
62124;BME280;48110;47.532;19.078;2022-08-19T09:47:20;99814.12;;;41.76;21.50
62124;BME280;48110;47.532;19.078;2022-08-19T09:50:27;99801.16;;;42.23;21.08
62124;BME280;48110;47.532;19.078;2022-08-19T09:53:30;99802.47;;;42.64;21.26
62124;BME280;48110;47.532;19.078;2022-08-19T09:56:36;99798.03;;;42.38;20.41
62124;BME280;48110;47.532;19.078;2022-08-19T09:59:39;99793.28;;;40.94;21.81
62124;BME280;48110;47.532;19.078;2022-08-19T10:02:42;99792.78;;;41.33;21.20
62124;BME280;48110;47.532;19.078;2022-08-19T10:05:50;99791.03;;;41.76;20.98
62124;BME280;48110;47.532;19.078;2022-08-19T10:08:56;99786.19;;;39.89;22.71
62124;BME280;48110;47.532;19.078;2022-08-19T10:12:02;99775.38;;;38.98;23.93
62124;BME280;48110;47.532;19.078;2022-08-19T10:15:07;99780.25;;;38.82;24.45
62124;BME280;48110;47.532;19.078;2022-08-19T10:18:11;99786.56;;;37.60;25.10
62124;BME280;48110;47.532;19.078;2022-08-19T10:21:17;99790.03;;;37.57;26.13
62124;BME280;48110;47.532;19.078;2022-08-19T10:24:21;99776.47;;;37.17;26.76
62124;BME280;48110;47.532;19.078;2022-08-19T10:27:26;99776.09;;;37.19;26.54
62124;BME280;48110;47.532;19.078;2022-08-19T10:30:39;99764.72;;;37.39;26.32
62124;BME280;48110;47.532;19.078;2022-08-19T10:33:41;99768.56;;;37.35;26.15
62124;BME280;48110;47.532;19.078;2022-08-19T10:36:56;99761.84;;;37.52;25.76
62124;BME280;48110;47.532;19.078;2022-08-19T10:40:06;99771.56;;;37.61;25.80
62124;BME280;48110;47.532;19.078;2022-08-19T10:43:10;99763.16;;;39.29;24.04
62124;BME280;48110;47.532;19.078;2022-08-19T10:46:15;99773.13;;;39.90;22.50
62124;BME280;48110;47.532;19.078;2022-08-19T10:49:18;99768.81;;;41.21;21.22
62124;BME280;48110;47.532;19.078;2022-08-19T10:52:25;99763.00;;;42.55;19.79
62124;BME280;48110;47.532;19.078;2022-08-19T10:55:40;99771.72;;;41.39;20.82
62124;BME280;48110;47.532;19.078;2022-08-19T10:59:03;99771.97;;;41.12;22.02
62124;BME280;48110;47.532;19.078;2022-08-19T11:02:10;99764.97;;;42.51;20.28
62124;BME280;48110;47.532;19.078;2022-08-19T11:05:15;99764.63;;;42.84;20.35
62124;BME280;48110;47.532;19.078;2022-08-19T11:08:19;99765.75;;;43.29;19.42
62124;BME280;48110;47.532;19.078;2022-08-19T11:11:26;99767.47;;;44.10;18.37
62124;BME280;48110;47.532;19.078;2022-08-19T11:14:29;99770.47;;;46.01;16.36
62124;BME280;48110;47.532;19.078;2022-08-19T11:17:36;99761.53;;;46.90;15.84
62124;BME280;48110;47.532;19.078;2022-08-19T11:20:39;99765.44;;;46.46;16.08
62124;BME280;48110;47.532;19.078;2022-08-19T11:23:41;99768.41;;;45.45;16.83
62124;BME280;48110;47.532;19.078;2022-08-19T11:26:47;99764.06;;;47.47;15.06
62124;BME280;48110;47.532;19.078;2022-08-19T11:29:56;99756.16;;;48.34;15.24
62124;BME280;48110;47.532;19.078;2022-08-19T11:32:59;99753.25;;;47.66;14.81
62124;BME280;48110;47.532;19.078;2022-08-19T11:36:03;99755.66;;;48.55;14.88
62124;BME280;48110;47.532;19.078;2022-08-19T11:39:13;99757.72;;;47.83;14.95
62124;BME280;48110;47.532;19.078;2022-08-19T11:42:17;99753.62;;;48.88;14.16
62124;BME280;48110;47.532;19.078;2022-08-19T11:45:53;99761.03;;;46.95;15.15
62124;BME280;48110;47.532;19.078;2022-08-19T11:48:58;99752.88;;;46.54;15.38
62124;BME280;48110;47.532;19.078;2022-08-19T11:52:03;99744.09;;;47.81;14.76
62124;BME280;48110;47.532;19.078;2022-08-19T11:55:06;99746.44;;;49.16;13.56
62124;BME280;48110;47.532;19.078;2022-08-19T11:58:11;99748.00;;;50.63;12.85
62124;BME280;48110;47.532;19.078;2022-08-19T12:01:21;99743.47;;;48.10;14.16
62124;BME280;48110;47.532;19.078;2022-08-19T12:04:24;99734.19;;;48.77;13.45
62124;BME280;48110;47.532;19.078;2022-08-19T12:07:27;99724.53;;;47.74;14.46
62124;BME280;48110;47.532;19.078;2022-08-19T12:10:33;99729.72;;;49.38;13.03
62124;BME280;48110;47.532;19.078;2022-08-19T12:13:36;99721.56;;;48.66;13.66
62124;BME280;48110;47.532;19.078;2022-08-19T12:16:39;99715.06;;;46.86;15.42
62124;BME280;48110;47.532;19.078;2022-08-19T12:19:53;99715.34;;;47.90;14.68
62124;BME280;48110;47.532;19.078;2022-08-19T12:22:56;99718.22;;;45.88;15.73
62124;BME280;48110;47.532;19.078;2022-08-19T12:26:01;99709.22;;;44.57;16.97
62124;BME280;48110;47.532;19.078;2022-08-19T12:29:04;99717.47;;;45.16;16.36
62124;BME280;48110;47.532;19.078;2022-08-19T12:32:07;99715.53;;;43.26;17.76
62124;BME280;48110;47.532;19.078;2022-08-19T12:35:16;99714.75;;;43.04;18.51
62124;BME280;48110;47.532;19.078;2022-08-19T12:38:20;99707.88;;;43.41;17.63
62124;BME280;48110;47.532;19.078;2022-08-19T12:41:26;99712.25;;;46.86;15.22
62124;BME280;48110;47.532;19.078;2022-08-19T12:44:29;99709.63;;;46.75;15.06
62124;BME280;48110;47.532;19.078;2022-08-19T12:47:39;99707.06;;;46.38;15.90
62124;BME280;48110;47.532;19.078;2022-08-19T12:50:46;99702.38;;;45.43;15.83
62124;BME280;48110;47.532;19.078;2022-08-19T12:53:49;99698.22;;;45.55;15.75
62124;BME280;48110;47.532;19.078;2022-08-19T12:56:52;99693.91;;;45.77;15.28
62124;BME280;48110;47.532;19.078;2022-08-19T12:59:55;99687.66;;;46.47;14.90
62124;BME280;48110;47.532;19.078;2022-08-19T13:02:59;99682.88;;;48.05;14.33
62124;BME280;48110;47.532;19.078;2022-08-19T13:06:02;99692.09;;;49.15;14.38
62124;BME280;48110;47.532;19.078;2022-08-19T13:09:05;99676.25;;;46.81;14.15
62124;BME280;48110;47.532;19.078;2022-08-19T13:12:08;99683.84;;;46.60;14.40
62124;BME280;48110;47.532;19.078;2022-08-19T13:15:18;99683.88;;;43.61;16.78
62124;BME280;48110;47.532;19.078;2022-08-19T13:18:27;99684.09;;;42.76;18.87
62124;BME280;48110;47.532;19.078;2022-08-19T13:21:31;99685.09;;;45.49;15.46
62124;BME280;48110;47.532;19.078;2022-08-19T13:24:35;99670.97;;;45.86;14.88
62124;BME280;48110;47.532;19.078;2022-08-19T13:27:40;99671.59;;;46.24;15.25
62124;BME280;48110;47.532;19.078;2022-08-19T13:30:50;99669.38;;;47.80;14.26
62124;BME280;48110;47.532;19.078;2022-08-19T13:34:13;99662.72;;;45.11;17.27
62124;BME280;48110;47.532;19.078;2022-08-19T13:37:16;99658.66;;;46.30;15.70
62124;BME280;48110;47.532;19.078;2022-08-19T13:40:40;99660.44;;;47.49;14.72
62124;BME280;48110;47.532;19.078;2022-08-19T13:43:43;99658.41;;;47.86;13.85
62124;BME280;48110;47.532;19.078;2022-08-19T13:46:48;99658.09;;;47.28;14.25
62124;BME280;48110;47.532;19.078;2022-08-19T13:49:55;99662.00;;;45.41;16.03
62124;BME280;48110;47.532;19.078;2022-08-19T13:52:59;99655.19;;;45.05;15.67
62124;BME280;48110;47.532;19.078;2022-08-19T13:56:08;99647.72;;;45.59;15.30
62124;BME280;48110;47.532;19.078;2022-08-19T13:59:11;99641.50;;;47.70;13.99
62124;BME280;48110;47.532;19.078;2022-08-19T14:02:16;99635.69;;;47.05;13.92
62124;BME280;48110;47.532;19.078;2022-08-19T14:05:20;99632.03;;;46.18;15.77
62124;BME280;48110;47.532;19.078;2022-08-19T14:08:23;99625.53;;;46.45;15.05
62124;BME280;48110;47.532;19.078;2022-08-19T14:11:28;99629.06;;;45.15;16.69
62124;BME280;48110;47.532;19.078;2022-08-19T14:14:31;99644.13;;;43.25;17.90
62124;BME280;48110;47.532;19.078;2022-08-19T14:17:40;99649.53;;;39.40;23.08
62124;BME280;48110;47.532;19.078;2022-08-19T14:20:44;99659.06;;;38.37;25.29
62124;BME280;48110;47.532;19.078;2022-08-19T14:23:47;99653.69;;;36.87;27.92
62124;BME280;48110;47.532;19.078;2022-08-19T14:26:50;99670.84;;;35.18;31.23
62124;BME280;48110;47.532;19.078;2022-08-19T14:29:55;99668.59;;;34.72;32.11
62124;BME280;48110;47.532;19.078;2022-08-19T14:33:00;99667.31;;;34.81;31.94
62124;BME280;48110;47.532;19.078;2022-08-19T14:36:06;99661.47;;;34.95;31.82
62124;BME280;48110;47.532;19.078;2022-08-19T14:39:09;99654.09;;;34.38;32.16
62124;BME280;48110;47.532;19.078;2022-08-19T14:42:12;99655.50;;;34.81;32.14
62124;BME280;48110;47.532;19.078;2022-08-19T14:45:17;99660.88;;;34.29;33.60
62124;BME280;48110;47.532;19.078;2022-08-19T14:48:20;99664.59;;;33.46;35.06
62124;BME280;48110;47.532;19.078;2022-08-19T14:51:31;99668.50;;;33.25;35.51
62124;BME280;48110;47.532;19.078;2022-08-19T14:54:34;99672.38;;;33.24;35.37
62124;BME280;48110;47.532;19.078;2022-08-19T14:57:40;99663.88;;;33.08;35.93
62124;BME280;48110;47.532;19.078;2022-08-19T15:00:43;99673.16;;;32.74;34.57
62124;BME280;48110;47.532;19.078;2022-08-19T15:03:47;99692.28;;;32.15;35.08
62124;BME280;48110;47.532;19.078;2022-08-19T15:06:50;99699.56;;;31.94;34.71
62124;BME280;48110;47.532;19.078;2022-08-19T15:09:53;99701.81;;;31.92;34.96
62124;BME280;48110;47.532;19.078;2022-08-19T15:12:56;99699.06;;;32.01;34.31
62124;BME280;48110;47.532;19.078;2022-08-19T15:15:59;99718.31;;;31.83;34.11
62124;BME280;48110;47.532;19.078;2022-08-19T15:19:02;99717.81;;;31.81;34.29
62124;BME280;48110;47.532;19.078;2022-08-19T15:22:05;99719.44;;;31.74;33.14
62124;BME280;48110;47.532;19.078;2022-08-19T15:25:09;99742.81;;;31.54;33.20
62124;BME280;48110;47.532;19.078;2022-08-19T15:28:13;99750.69;;;31.38;33.26
62124;BME280;48110;47.532;19.078;2022-08-19T15:31:19;99753.41;;;31.21;34.15
62124;BME280;48110;47.532;19.078;2022-08-19T15:34:30;99773.88;;;31.15;34.60
62124;BME280;48110;47.532;19.078;2022-08-19T15:37:34;99778.25;;;30.94;35.63
62124;BME280;48110;47.532;19.078;2022-08-19T15:40:40;99791.19;;;30.93;35.47
62124;BME280;48110;47.532;19.078;2022-08-19T15:43:43;99791.31;;;30.88;35.91
62124;BME280;48110;47.532;19.078;2022-08-19T15:46:47;99776.81;;;30.88;36.02
62124;BME280;48110;47.532;19.078;2022-08-19T15:49:53;99765.19;;;30.82;36.60
62124;BME280;48110;47.532;19.078;2022-08-19T15:53:08;99738.78;;;30.86;36.24
62124;BME280;48110;47.532;19.078;2022-08-19T15:56:13;99697.84;;;30.81;36.08
62124;BME280;48110;47.532;19.078;2022-08-19T15:59:16;99692.47;;;30.59;36.74
62124;BME280;48110;47.532;19.078;2022-08-19T16:02:48;99698.56;;;30.56;36.85
62124;BME280;48110;47.532;19.078;2022-08-19T16:06:09;99698.13;;;30.71;36.98
62124;BME280;48110;47.532;19.078;2022-08-19T16:09:29;99697.59;;;30.60;37.36
62124;BME280;48110;47.532;19.078;2022-08-19T16:12:34;99694.53;;;30.53;36.83
62124;BME280;48110;47.532;19.078;2022-08-19T16:15:37;99698.22;;;30.49;36.28
62124;BME280;48110;47.532;19.078;2022-08-19T16:18:41;99681.50;;;30.28;35.71
62124;BME280;48110;47.532;19.078;2022-08-19T16:21:47;99665.63;;;30.39;35.67